Time;durP1;ratioP1;P1;durP2;ratioP2;P2;SDS_P1;SDS_P2;PMS_P1;PMS_P2;Temp;Humidity;BMP_temperature;BMP_pressure;BME280_temperature;BME280_humidity;BME280_pressure;Samples;Min_cycle;Max_cycle;Signal;HPM_P1;HPM_P2
2022/01/17 00:01:29;;;;;;;3.38;1.58;;;;;;;20.73;38.22;102765.66;5032113;28;20548;-67
2022/01/17 00:03:54;;;;;;;3.53;1.85;;;;;;;20.71;38.26;102772.91;5031836;28;20718;-66
2022/01/17 00:06:21;;;;;;;4.88;1.70;;;;;;;20.73;37.95;102770.97;5026170;28;20051;-67
2022/01/17 00:08:48;;;;;;;4.40;1.77;;;;;;;20.69;38.31;102762.47;5028685;28;20036;-66
2022/01/17 00:11:14;;;;;;;3.13;1.48;;;;;;;20.68;38.23;102775.84;5029467;28;20036;-66
2022/01/17 00:13:41;;;;;;;5.18;1.85;;;;;;;20.71;38.23;102773.75;5028273;28;20080;-66
2022/01/17 00:21:02;;;;;;;5.10;1.80;;;;;;;20.57;38.34;102778.59;5027050;28;20916;-67
2022/01/17 00:23:28;;;;;;;2.83;1.63;;;;;;;20.56;38.28;102793.66;5034514;28;20040;-66
2022/01/17 00:25:53;;;;;;;6.10;2.00;;;;;;;20.50;38.53;102802.16;5029053;28;20049;-66
2022/01/17 00:28:19;;;;;;;2.28;1.50;;;;;;;20.54;38.14;102797.41;5028985;28;20396;-66
2022/01/17 00:30:44;;;;;;;3.83;1.70;;;;;;;20.54;38.36;102800.06;5027370;28;20083;-66
2022/01/17 00:33:11;;;;;;;3.35;1.98;;;;;;;20.52;38.25;102781.66;5030622;28;20394;-66
2022/01/17 00:35:36;;;;;;;3.78;1.80;;;;;;;20.50;38.27;102760.63;5031232;28;20048;-66
2022/01/17 00:38:02;;;;;;;3.67;1.67;;;;;;;20.46;38.36;102766.31;5031270;28;20159;-66
2022/01/17 00:40:28;;;;;;;4.22;1.70;;;;;;;20.49;38.27;102774.84;5026120;28;21065;-67
2022/01/17 00:42:54;;;;;;;5.30;1.65;;;;;;;20.48;38.35;102782.91;5029545;28;20048;-65
2022/01/17 00:45:27;;;;;;;3.88;1.70;;;;;;;20.43;38.33;102778.00;5031482;28;20086;-67
2022/01/17 00:47:55;;;;;;;4.85;1.92;;;;;;;20.39;38.35;102781.88;5025507;28;20041;-66
2022/01/17 00:50:21;;;;;;;4.22;1.63;;;;;;;20.37;38.28;102789.13;5025318;28;20029;-66
2022/01/17 00:52:47;;;;;;;5.63;1.55;;;;;;;20.40;38.25;102802.06;5025430;28;20044;-66
2022/01/17 00:55:13;;;;;;;4.43;1.70;;;;;;;20.37;38.28;102793.59;5027729;28;20039;-66
2022/01/17 00:57:38;;;;;;;4.85;1.60;;;;;;;20.35;38.42;102792.88;5028467;28;20048;-67
2022/01/17 01:00:08;;;;;;;3.85;1.60;;;;;;;20.36;38.52;102771.56;5024515;28;20045;-66
2022/01/17 01:02:33;;;;;;;1.77;1.33;;;;;;;20.31;38.30;102760.56;5024214;28;20029;-66
2022/01/17 01:04:59;;;;;;;4.88;1.77;;;;;;;20.29;38.57;102765.16;5026605;28;20366;-66
2022/01/17 01:07:25;;;;;;;6.45;1.80;;;;;;;20.30;38.42;102771.28;5032015;28;20033;-66
2022/01/17 01:10:10;;;;;;;2.28;1.25;;;;;;;20.31;38.47;102780.91;5030804;28;20036;-66
2022/01/17 01:12:41;;;;;;;2.78;1.60;;;;;;;20.28;38.51;102789.91;5039202;28;21796;-66
2022/01/17 01:15:14;;;;;;;4.07;1.35;;;;;;;20.29;38.39;102790.75;5024614;28;20450;-67
2022/01/17 01:17:55;;;;;;;3.95;1.50;;;;;;;20.25;38.35;102798.13;5028954;28;20411;-66
2022/01/17 01:28:27;;;;;;;3.42;1.58;;;;;;;20.18;38.48;102791.72;5026307;28;20589;-66
2022/01/17 01:30:55;;;;;;;5.57;2.03;;;;;;;20.17;38.42;102787.41;5029372;28;20040;-66
2022/01/17 01:33:42;;;;;;;3.30;1.70;;;;;;;20.15;38.38;102786.69;5025241;28;21676;-67
2022/01/17 01:36:14;;;;;;;4.82;1.50;;;;;;;20.16;38.26;102780.44;5028286;28;20040;-67
2022/01/17 01:38:40;;;;;;;3.10;1.40;;;;;;;20.08;38.55;102778.44;5024231;28;20663;-67
2022/01/17 01:41:06;;;;;;;6.15;1.73;;;;;;;20.13;38.60;102786.00;5035665;28;20044;-66
2022/01/17 01:43:31;;;;;;;3.92;1.50;;;;;;;20.11;38.54;102772.91;5024703;28;20048;-66
2022/01/17 01:46:00;;;;;;;3.67;1.33;;;;;;;20.11;38.46;102778.22;5029027;28;20040;-66
2022/01/17 01:48:27;;;;;;;3.42;1.42;;;;;;;20.09;38.50;102780.13;5024520;28;20474;-66
2022/01/17 01:50:53;;;;;;;4.85;1.55;;;;;;;20.07;38.56;102792.66;5043838;28;20135;-66
2022/01/17 01:53:19;;;;;;;6.70;2.42;;;;;;;20.05;38.61;102788.47;5024176;28;20037;-65
2022/01/17 01:55:45;;;;;;;3.85;1.80;;;;;;;20.06;38.47;102790.13;5023703;28;20036;-66
2022/01/17 01:58:10;;;;;;;2.78;1.30;;;;;;;20.03;38.61;102775.38;5026467;28;20048;-67
2022/01/17 02:00:37;;;;;;;5.47;2.05;;;;;;;20.02;38.58;102764.94;5027703;28;20108;-66
2022/01/17 02:03:06;;;;;;;4.05;1.52;;;;;;;20.02;38.54;102767.59;5025032;28;20037;-66
2022/01/17 02:05:32;;;;;;;5.78;2.50;;;;;;;20.05;38.46;102773.44;5023737;28;20744;-66
2022/01/17 02:07:58;;;;;;;3.70;1.73;;;;;;;20.00;38.49;102775.66;5024502;28;20044;-67
2022/01/17 02:10:23;;;;;;;4.15;1.70;;;;;;;20.00;38.49;102778.28;5030773;28;20443;-67
2022/01/17 02:12:49;;;;;;;6.75;1.50;;;;;;;20.00;38.54;102788.03;5025154;28;20065;-66
2022/01/17 02:15:17;;;;;;;5.55;1.85;;;;;;;19.99;38.52;102789.00;5027851;28;20039;-66
2022/01/17 02:17:54;;;;;;;3.15;1.27;;;;;;;19.97;38.42;102772.44;5024454;28;20862;-66
2022/01/17 02:20:34;;;;;;;4.70;1.63;;;;;;;19.90;38.58;102777.41;5025147;28;20071;-66
2022/01/17 02:23:04;;;;;;;;;;;;;;;19.92;38.63;102788.69;5027277;28;20108;-67
2022/01/17 02:25:32;;;;;;;3.73;1.97;;;;;;;19.88;38.64;102790.75;5027694;28;19920;-66
2022/01/17 02:27:58;;;;;;;3.38;1.85;;;;;;;19.90;38.50;102804.69;5024465;28;20045;-66
2022/01/17 02:30:26;;;;;;;2.83;1.55;;;;;;;19.87;38.74;102804.94;5022592;28;21501;-67
2022/01/17 02:32:52;;;;;;;3.40;1.27;;;;;;;19.86;38.57;102803.28;5030751;28;20052;-67
2022/01/17 02:35:23;;;;;;;5.72;1.42;;;;;;;19.86;38.59;102803.28;5022925;28;20032;-67
2022/01/17 02:37:49;;;;;;;4.03;1.60;;;;;;;19.84;38.73;102820.25;5024376;28;20037;-67
2022/01/17 02:40:16;;;;;;;5.60;1.70;;;;;;;19.77;38.59;102811.19;5024716;28;20037;-67
2022/01/17 02:42:44;;;;;;;6.22;2.20;;;;;;;19.79;38.64;102817.16;5027899;28;20056;-67
2022/01/17 02:45:20;;;;;;;5.75;1.55;;;;;;;19.80;38.59;102809.09;5023603;28;20403;-66
2022/01/17 02:47:45;;;;;;;2.97;1.20;;;;;;;19.77;38.58;102788.22;5024656;28;20029;-66
2022/01/17 02:50:11;;;;;;;5.90;1.88;;;;;;;19.75;38.83;102787.53;5026509;28;20056;-66
2022/01/17 02:52:37;;;;;;;5.88;2.17;;;;;;;19.76;38.65;102791.84;5025579;28;20120;-67
2022/01/17 02:55:03;;;;;;;4.65;1.67;;;;;;;19.73;38.70;102784.16;5027895;28;20044;-66
2022/01/17 02:57:32;;;;;;;4.38;1.30;;;;;;;19.73;38.60;102786.78;5023807;28;20825;-67
2022/01/17 02:59:58;;;;;;;5.40;1.67;;;;;;;19.75;38.57;102786.66;5025353;28;20186;-67
2022/01/17 03:02:23;;;;;;;6.57;2.03;;;;;;;19.75;38.62;102776.94;5023600;28;20070;-67
2022/01/17 03:04:49;;;;;;;6.50;1.83;;;;;;;19.70;38.74;102780.94;5027847;28;20038;-67
2022/01/17 03:07:14;;;;;;;4.32;1.58;;;;;;;19.69;38.66;102790.69;5026970;28;20866;-66
2022/01/17 03:09:49;;;;;;;2.17;1.17;;;;;;;19.69;38.68;102779.25;5039987;28;20025;-67
2022/01/17 03:12:15;;;;;;;4.65;2.10;;;;;;;19.70;38.55;102773.00;5026365;28;20600;-66
2022/01/17 03:14:40;;;;;;;3.20;1.55;;;;;;;19.69;38.59;102769.53;5023210;28;20053;-67
2022/01/17 03:17:06;;;;;;;6.07;2.22;;;;;;;19.64;38.65;102766.44;5022892;28;20037;-66
2022/01/17 03:19:31;;;;;;;4.32;1.48;;;;;;;19.70;38.61;102778.28;5027383;28;20529;-66
2022/01/17 03:21:57;;;;;;;5.57;1.60;;;;;;;19.66;38.53;102767.16;5025569;28;20057;-66
2022/01/17 03:24:23;;;;;;;4.18;1.60;;;;;;;19.67;38.63;102773.28;5024669;28;20111;-67
2022/01/17 03:26:49;;;;;;;3.70;1.30;;;;;;;19.63;38.73;102791.22;5026363;28;20063;-66
2022/01/17 03:29:14;;;;;;;3.50;1.48;;;;;;;19.66;38.60;102795.38;5025497;28;20992;-66
2022/01/17 03:31:40;;;;;;;2.72;1.50;;;;;;;19.62;38.63;102805.41;5019661;28;20052;-68
2022/01/17 03:34:06;;;;;;;4.88;1.98;;;;;;;19.67;38.62;102812.91;5028006;28;20049;-68
2022/01/17 03:36:32;;;;;;;3.85;1.60;;;;;;;19.66;38.50;102821.81;5024338;28;20052;-68
2022/01/17 03:38:58;;;;;;;3.10;1.33;;;;;;;19.60;38.50;102824.03;5030522;28;20160;-68
2022/01/17 03:41:24;;;;;;;2.15;1.13;;;;;;;19.58;38.52;102820.69;5029848;28;20040;-68
2022/01/17 03:43:50;;;;;;;4.47;1.52;;;;;;;19.62;38.57;102829.19;5028935;28;20037;-68
2022/01/17 03:46:15;;;;;;;4.80;1.65;;;;;;;19.63;38.62;102817.63;5028422;28;20041;-68
2022/01/17 03:48:41;;;;;;;4.28;1.42;;;;;;;19.63;38.50;102815.00;5026289;28;20034;-68
2022/01/17 03:51:06;;;;;;;5.32;1.70;;;;;;;19.55;38.71;102810.34;5032531;28;20550;-67
2022/01/17 03:53:32;;;;;;;3.28;1.70;;;;;;;19.56;38.68;102809.38;5026536;28;20491;-68
2022/01/17 03:55:58;;;;;;;4.20;1.85;;;;;;;19.54;38.68;102803.38;5028181;28;20045;-66
2022/01/17 03:58:27;;;;;;;3.42;1.52;;;;;;;19.55;38.59;102801.56;5028069;28;20033;-66
2022/01/17 04:00:55;;;;;;;3.58;1.50;;;;;;;19.56;38.67;102798.81;5027895;28;21080;-66
2022/01/17 04:03:22;;;;;;;5.45;1.75;;;;;;;19.54;38.61;102800.75;5031230;28;20664;-66
2022/01/17 04:05:48;;;;;;;4.28;1.20;;;;;;;19.54;38.51;102798.09;5027605;28;20351;-66
2022/01/17 04:08:14;;;;;;;4.22;1.60;;;;;;;19.53;38.62;102790.28;5026740;28;20064;-66
2022/01/17 04:10:40;;;;;;;3.60;1.63;;;;;;;19.52;38.52;102780.66;5026633;28;20057;-66
2022/01/17 04:13:08;;;;;;;6.57;1.20;;;;;;;19.51;38.50;102782.47;5031002;28;20055;-66
2022/01/17 04:15:35;;;;;;;2.67;1.60;;;;;;;19.45;38.83;102785.66;5033837;28;20598;-66
2022/01/17 04:18:02;;;;;;;7.47;1.92;;;;;;;19.49;38.53;102780.94;5029714;28;20044;-66
2022/01/17 04:20:29;;;;;;;6.30;1.85;;;;;;;19.43;38.72;102782.31;5027495;28;20025;-66
2022/01/17 04:23:03;;;;;;;3.60;1.30;;;;;;;19.46;38.65;102778.56;5028174;28;20111;-66
2022/01/17 04:25:30;;;;;;;4.45;1.35;;;;;;;19.39;38.85;102785.31;5027285;28;20143;-66
2022/01/17 04:27:58;;;;;;;3.55;1.15;;;;;;;19.43;38.83;102787.59;5028372;28;20128;-66
2022/01/17 04:30:24;;;;;;;7.05;1.75;;;;;;;19.52;38.67;102793.88;5026684;28;20483;-66
2022/01/17 04:32:49;;;;;;;4.72;1.77;;;;;;;19.66;38.48;102790.09;5026404;28;20130;-65
2022/01/17 04:35:20;;;;;;;2.95;1.48;;;;;;;19.88;37.89;102789.94;5028994;28;20037;-66
2022/01/17 04:37:58;;;;;;;3.90;1.20;;;;;;;20.06;37.96;102800.72;5031483;28;20116;-66
2022/01/17 04:40:24;;;;;;;2.30;1.15;;;;;;;20.31;37.40;102804.72;5040096;28;20070;-66
2022/01/17 04:42:53;;;;;;;2.88;1.20;;;;;;;20.52;37.07;102793.09;5040912;28;20048;-66
2022/01/17 04:45:20;;;;;;;3.00;1.17;;;;;;;20.70;36.92;102795.06;5029192;28;20041;-66
2022/01/17 04:47:49;;;;;;;5.30;1.83;;;;;;;21.04;36.72;102803.44;5030065;28;20026;-66
2022/01/17 04:50:20;;;;;;;5.07;1.55;;;;;;;21.33;36.32;102795.47;5028609;28;20798;-65
2022/01/17 04:52:47;;;;;;;3.28;1.40;;;;;;;21.46;35.77;102803.97;5026505;28;20033;-66
2022/01/17 04:55:14;;;;;;;3.00;1.40;;;;;;;21.55;35.86;102815.53;5027033;28;20057;-66
2022/01/17 04:57:42;;;;;;;4.95;1.77;;;;;;;21.57;36.00;102802.97;5032557;28;20046;-66
2022/01/17 05:00:10;;;;;;;4.55;1.63;;;;;;;21.72;35.72;102806.81;5026142;28;20645;-66
2022/01/17 05:02:36;;;;;;;3.60;1.00;;;;;;;21.69;35.74;102809.75;5035415;28;20040;-66
2022/01/17 05:05:04;;;;;;;2.78;1.60;;;;;;;21.74;35.84;102804.88;5045978;28;20048;-65
2022/01/17 05:07:33;;;;;;;4.35;1.77;;;;;;;21.80;35.79;102803.44;5032903;28;20405;-66
2022/01/17 05:09:58;;;;;;;2.60;1.52;;;;;;;21.78;35.78;102810.72;5026938;28;20123;-66
2022/01/17 05:12:25;;;;;;;3.60;1.35;;;;;;;21.82;35.61;102809.44;5026124;28;20380;-66
2022/01/17 05:14:52;;;;;;;1.75;0.82;;;;;;;21.75;35.73;102798.59;5029934;28;20041;-66
2022/01/17 05:17:35;;;;;;;3.28;1.17;;;;;;;21.69;35.79;102799.16;5024744;28;20033;-66
2022/01/17 05:20:01;;;;;;;5.00;1.30;;;;;;;21.66;35.78;102792.31;5042560;28;20047;-66
2022/01/17 05:22:31;;;;;;;3.60;1.48;;;;;;;21.66;35.81;102799.44;5025085;28;20033;-65
2022/01/17 05:24:58;;;;;;;4.18;1.27;;;;;;;21.57;35.86;102789.72;5027462;28;20037;-66
2022/01/17 05:27:23;;;;;;;3.97;1.35;;;;;;;21.55;36.20;102789.88;5028145;28;20215;-66
2022/01/17 05:29:49;;;;;;;2.85;1.30;;;;;;;21.56;36.15;102788.88;5030693;28;20486;-66
2022/01/17 05:32:14;;;;;;;3.65;1.20;;;;;;;21.51;36.22;102799.06;5043094;28;20045;-66
2022/01/17 05:34:41;;;;;;;2.90;1.23;;;;;;;21.47;36.14;102789.72;5032153;28;20057;-67
2022/01/17 05:37:08;;;;;;;3.45;1.65;;;;;;;21.44;36.17;102775.94;5039187;28;20037;-66
2022/01/17 05:39:34;;;;;;;3.65;1.50;;;;;;;21.45;36.42;102781.09;5028202;28;20673;-66
2022/01/17 05:42:00;;;;;;;3.85;1.48;;;;;;;21.49;35.97;102773.69;5037941;28;20049;-66
2022/01/17 05:44:25;;;;;;;3.45;1.27;;;;;;;21.44;36.38;102782.06;5034448;28;20087;-65
2022/01/17 05:46:51;;;;;;;5.30;1.17;;;;;;;21.53;36.18;102773.25;5031303;28;20033;-66
2022/01/17 05:49:16;;;;;;;2.95;1.27;;;;;;;21.53;36.07;102761.81;5034484;28;20037;-66
2022/01/17 05:51:42;;;;;;;3.58;1.13;;;;;;;21.54;36.22;102764.31;5037768;28;20127;-65
2022/01/17 05:54:08;;;;;;;2.85;1.40;;;;;;;21.57;36.29;102756.09;5042758;28;20041;-66
2022/01/17 05:56:34;;;;;;;2.05;1.23;;;;;;;21.56;36.29;102758.88;5040620;28;20056;-66
2022/01/17 05:58:59;;;;;;;4.00;1.65;;;;;;;21.56;36.42;102764.19;5034298;28;20053;-66
2022/01/17 06:01:25;;;;;;;3.95;1.30;;;;;;;21.60;36.19;102770.88;5028643;28;20507;-66
2022/01/17 06:03:51;;;;;;;4.50;1.65;;;;;;;21.62;36.23;102780.34;5028296;28;20048;-66
2022/01/17 06:06:16;;;;;;;3.17;1.30;;;;;;;21.62;36.33;102780.34;5026414;28;20041;-66
2022/01/17 06:08:42;;;;;;;4.72;1.58;;;;;;;21.68;35.96;102800.13;5030006;28;20418;-66
2022/01/17 06:11:08;;;;;;;5.00;1.58;;;;;;;21.68;36.06;102794.84;5036027;28;20044;-66
2022/01/17 06:13:34;;;;;;;4.63;1.92;;;;;;;21.78;35.68;102794.81;5028528;28;20051;-66
2022/01/17 06:15:59;;;;;;;2.95;1.50;;;;;;;21.83;35.62;102803.16;5032204;28;20044;-66
2022/01/17 06:18:25;;;;;;;3.47;1.42;;;;;;;21.82;35.77;102809.44;5036672;28;20130;-65
2022/01/17 06:20:51;;;;;;;4.22;1.50;;;;;;;21.90;35.42;102796.28;5031643;28;20800;-66
2022/01/17 06:23:16;;;;;;;4.05;1.48;;;;;;;21.86;35.78;102805.50;5036718;28;20087;-66
2022/01/17 06:25:42;;;;;;;2.70;1.33;;;;;;;21.91;35.78;102803.28;5030811;28;20048;-66
2022/01/17 06:28:07;;;;;;;3.65;1.45;;;;;;;21.89;35.68;102791.97;5037503;28;20363;-66
2022/01/17 06:30:33;;;;;;;4.57;1.60;;;;;;;21.96;35.42;102798.38;5029636;28;20123;-66
2022/01/17 06:32:59;;;;;;;4.40;1.80;;;;;;;21.93;35.47;102802.16;5032568;28;20048;-66
2022/01/17 06:35:24;;;;;;;2.55;1.27;;;;;;;21.91;35.87;102805.94;5038267;28;20033;-66
2022/01/17 06:37:51;;;;;;;3.20;1.52;;;;;;;21.86;35.81;102810.81;5032741;28;20480;-66
2022/01/17 06:40:17;;;;;;;3.78;1.60;;;;;;;21.78;36.10;102795.66;5031759;28;20037;-66
2022/01/17 06:42:42;;;;;;;4.50;1.58;;;;;;;21.69;36.00;102797.34;5032068;28;20806;-66
2022/01/17 06:45:09;;;;;;;2.88;1.77;;;;;;;21.63;36.33;102805.03;5034807;28;20582;-67
2022/01/17 06:47:35;;;;;;;3.53;1.67;;;;;;;21.58;36.20;102813.44;5033099;28;20236;-66
2022/01/17 06:50:04;;;;;;;3.63;1.58;;;;;;;21.52;36.48;102837.84;5036139;28;20025;-66
2022/01/17 06:52:31;;;;;;;3.22;1.65;;;;;;;21.50;36.67;102834.50;5033449;28;20483;-65
2022/01/17 06:54:56;;;;;;;5.13;1.75;;;;;;;21.55;36.16;102850.84;5033826;28;20120;-66
2022/01/17 06:57:23;;;;;;;4.53;1.50;;;;;;;21.59;36.29;102860.16;5029580;28;20547;-66
2022/01/17 06:59:49;;;;;;;3.58;1.45;;;;;;;21.70;36.22;102869.75;5031346;28;20059;-66
2022/01/17 07:02:15;;;;;;;5.13;2.00;;;;;;;21.72;35.97;102881.06;5034679;28;20040;-66
2022/01/17 07:04:41;;;;;;;5.78;1.85;;;;;;;21.83;35.99;102903.94;5028659;28;20041;-66
2022/01/17 07:07:06;;;;;;;3.25;1.52;;;;;;;21.89;35.68;102880.31;5038360;28;20056;-66
2022/01/17 07:09:32;;;;;;;3.60;1.70;;;;;;;21.94;35.69;102864.84;5034996;28;20041;-65
2022/01/17 07:11:59;;;;;;;2.92;1.58;;;;;;;21.94;35.55;102842.78;5037631;28;20041;-66
2022/01/17 07:14:26;;;;;;;3.53;1.52;;;;;;;21.95;35.78;102833.84;5045263;28;20622;-66
2022/01/17 07:16:52;;;;;;;3.75;1.27;;;;;;;21.99;35.55;102829.91;5034452;28;20044;-66
2022/01/17 07:19:18;;;;;;;4.40;1.42;;;;;;;21.89;36.03;102824.63;5042061;28;20061;-66
2022/01/17 07:21:44;;;;;;;3.35;1.52;;;;;;;21.84;36.13;102826.03;5033957;28;20071;-66
2022/01/17 07:24:10;;;;;;;3.67;1.75;;;;;;;21.75;35.84;102821.63;5039817;28;20062;-66
2022/01/17 07:26:36;;;;;;;4.72;1.55;;;;;;;21.69;36.13;102834.47;5035268;28;20037;-66
2022/01/17 07:29:05;;;;;;;5.65;2.22;;;;;;;21.63;36.17;102831.56;5031591;28;20040;-66
2022/01/17 07:31:32;;;;;;;4.32;1.95;;;;;;;21.62;36.17;102833.38;5034521;28;20044;-66
2022/01/17 07:33:58;;;;;;;4.68;1.98;;;;;;;21.63;36.31;102843.00;5026980;28;20044;-66
2022/01/17 07:36:24;;;;;;;2.65;1.42;;;;;;;21.55;36.38;102829.63;5025355;28;20033;-66
2022/01/17 07:38:50;;;;;;;5.53;2.05;;;;;;;21.69;36.20;102845.06;5024333;28;20142;-66
2022/01/17 07:41:16;;;;;;;4.50;1.80;;;;;;;21.79;36.04;102852.19;5027887;28;20044;-66
2022/01/17 07:43:42;;;;;;;6.95;2.40;;;;;;;21.87;35.73;102862.88;5025280;28;20041;-66
2022/01/17 07:46:18;;;;;;;4.60;1.80;;;;;;;21.85;35.49;102844.47;5024816;28;20033;-66
2022/01/17 07:51:28;;;;;;;4.88;1.83;;;;;;;22.12;35.65;102862.28;5034573;28;20090;-66
2022/01/17 07:53:55;;;;;;;4.32;1.85;;;;;;;22.16;35.22;102866.31;5032655;28;20049;-66
2022/01/17 07:56:20;;;;;;;5.57;1.88;;;;;;;22.13;35.40;102863.13;5035113;28;20132;-66
2022/01/17 07:58:46;;;;;;;3.97;1.70;;;;;;;22.15;35.40;102874.41;5041639;28;20057;-66
2022/01/17 08:01:12;;;;;;;6.05;2.40;;;;;;;22.11;35.50;102873.88;5033176;28;20053;-66
2022/01/17 08:03:37;;;;;;;4.70;2.00;;;;;;;22.11;35.36;102881.84;5036378;28;20037;-66
2022/01/17 08:06:03;;;;;;;6.20;1.90;;;;;;;22.12;35.24;102885.34;5031228;28;20053;-65
2022/01/17 08:08:29;;;;;;;5.68;1.90;;;;;;;22.08;35.71;102891.88;5037652;28;20056;-67
2022/01/17 08:10:54;;;;;;;2.47;1.65;;;;;;;22.00;35.88;102895.25;5034914;28;20033;-67
2022/01/17 08:13:20;;;;;;;3.50;1.77;;;;;;;21.96;36.00;102904.47;5034938;28;20055;-67
2022/01/17 08:15:46;;;;;;;4.13;2.00;;;;;;;21.85;35.94;102897.50;5034163;28;21726;-67
2022/01/17 08:18:13;;;;;;;5.03;1.90;;;;;;;21.79;36.31;102898.09;5031452;28;20068;-67
2022/01/17 08:20:38;;;;;;;3.42;1.70;;;;;;;21.70;36.14;102890.97;5035421;28;20541;-66
2022/01/17 08:23:04;;;;;;;3.70;2.05;;;;;;;21.66;36.62;102900.19;5030849;28;20073;-67
2022/01/17 08:25:30;;;;;;;4.22;1.70;;;;;;;21.64;36.37;102899.50;5035454;28;20206;-67
2022/01/17 08:27:55;;;;;;;5.97;2.38;;;;;;;21.63;36.70;102895.19;5030280;28;20028;-67
2022/01/17 08:30:23;;;;;;;3.58;1.88;;;;;;;21.61;36.33;102897.97;5032486;28;20047;-67
2022/01/17 08:32:49;;;;;;;7.38;2.42;;;;;;;21.63;36.54;102909.28;5041273;28;20037;-67
2022/01/17 08:35:15;;;;;;;3.63;1.85;;;;;;;21.54;36.49;102898.66;5035157;28;20036;-67
2022/01/17 08:37:40;;;;;;;6.38;2.38;;;;;;;21.55;36.61;102892.41;5044442;28;20040;-67
2022/01/17 08:40:07;;;;;;;5.70;2.08;;;;;;;21.49;36.47;102893.81;5031316;28;20041;-67
2022/01/17 08:42:38;;;;;;;3.78;1.75;;;;;;;21.42;36.60;102896.19;5037992;28;20040;-64
2022/01/17 08:45:07;;;;;;;3.65;1.88;;;;;;;21.45;36.93;102902.19;5035730;28;20052;-66
2022/01/17 08:47:33;;;;;;;6.75;1.98;;;;;;;21.41;36.87;102902.47;5036546;28;20037;-67
2022/01/17 08:49:59;;;;;;;5.88;1.92;;;;;;;21.46;36.65;102901.19;5051115;28;20144;-66
2022/01/17 08:52:25;;;;;;;6.22;2.00;;;;;;;21.50;36.55;102903.41;5030855;28;20037;-66
2022/01/17 08:54:51;;;;;;;6.43;2.08;;;;;;;21.61;36.26;102903.28;5032668;28;21023;-66
2022/01/17 08:57:20;;;;;;;3.30;1.73;;;;;;;21.70;36.11;102913.03;5028535;28;20080;-66
2022/01/17 08:59:46;;;;;;;4.03;1.77;;;;;;;21.77;36.31;102920.44;5036785;28;20497;-66
2022/01/17 09:02:12;;;;;;;5.45;1.90;;;;;;;21.87;35.97;102926.53;5031353;28;20073;-66
2022/01/17 09:04:41;;;;;;;3.08;1.65;;;;;;;21.94;35.91;102933.81;5029154;28;20065;-66
2022/01/17 09:07:08;;;;;;;4.55;1.65;;;;;;;22.00;35.76;102937.69;5038475;28;20045;-67
2022/01/17 09:09:35;;;;;;;7.32;2.20;;;;;;;22.06;35.93;102939.78;5030236;28;20027;-66
2022/01/17 09:12:00;;;;;;;7.13;2.20;;;;;;;22.48;35.32;102936.72;4999264;28;20837;-69
2022/01/17 09:14:27;;;;;;;5.60;2.38;;;;;;;22.72;35.17;102942.34;5038936;28;20040;-69
2022/01/17 09:16:53;;;;;;;6.53;2.42;;;;;;;22.90;35.14;102947.72;5035495;28;20775;-69
2022/01/17 09:19:18;;;;;;;4.95;2.25;;;;;;;22.90;35.24;102939.75;5035166;28;20060;-68
2022/01/17 09:21:44;;;;;;;7.00;2.20;;;;;;;22.91;35.13;102930.78;5030651;28;20043;-70
2022/01/17 09:24:09;;;;;;;5.03;1.80;;;;;;;22.96;34.93;102931.16;5042398;28;20574;-68
2022/01/17 09:26:35;;;;;;;5.60;2.15;;;;;;;22.76;35.38;102911.81;5013983;28;20032;-69
2022/01/17 09:29:01;;;;;;;3.80;1.95;;;;;;;22.86;35.34;102925.09;5003551;28;20379;-68
2022/01/17 09:31:26;;;;;;;8.15;2.25;;;;;;;22.86;35.63;102943.69;5034296;28;20041;-69
2022/01/17 09:33:52;;;;;;;5.75;2.53;;;;;;;22.79;35.48;102932.78;5001980;28;20040;-69
2022/01/17 09:36:20;;;;;;;7.97;2.83;;;;;;;22.77;35.58;102929.44;5031439;28;20609;-68
2022/01/17 09:38:46;;;;;;;4.88;1.85;;;;;;;22.73;36.01;102945.81;5001168;28;21496;-69
2022/01/17 09:41:11;;;;;;;7.07;2.00;;;;;;;22.75;35.69;102938.53;5035427;28;20029;-69
2022/01/17 09:43:37;;;;;;;7.20;2.00;;;;;;;22.71;35.78;102935.34;4997140;28;20053;-69
2022/01/17 09:46:04;;;;;;;8.32;2.67;;;;;;;22.67;35.88;102944.59;5027199;28;20735;-68
2022/01/17 09:48:37;;;;;;;6.82;2.40;;;;;;;22.72;36.08;102962.75;5032922;28;20029;-67
2022/01/17 09:54:06;;;;;;;6.00;2.28;;;;;;;22.68;36.20;102978.16;4976187;28;20717;-70
2022/01/17 09:56:32;;;;;;;5.93;2.20;;;;;;;22.70;36.09;102967.38;5004077;28;20020;-70
2022/01/17 09:58:59;;;;;;;9.15;2.60;;;;;;;22.54;36.42;102970.66;5045653;28;20077;-69
2022/01/17 10:01:27;;;;;;;6.28;2.53;;;;;;;22.63;36.23;102979.56;4986967;28;20049;-69
2022/01/17 10:03:56;;;;;;;6.13;2.80;;;;;;;22.64;36.41;102979.44;5035740;28;20828;-70
2022/01/17 10:06:25;;;;;;;7.78;3.03;;;;;;;22.67;36.58;102973.81;5004941;28;20041;-68
2022/01/17 10:09:21;;;;;;;7.80;2.90;;;;;;;22.69;36.56;102976.31;5032229;28;20032;-69
2022/01/17 10:12:07;;;;;;;8.98;2.88;;;;;;;22.58;36.65;102990.63;5001313;28;20045;-67
2022/01/17 10:14:36;;;;;;;10.75;2.90;;;;;;;22.44;36.48;102997.25;5039589;28;20035;-67
2022/01/17 10:17:04;;;;;;;8.80;2.60;;;;;;;22.39;36.39;102991.53;4998193;28;20044;-67
2022/01/17 10:19:30;;;;;;;9.00;2.60;;;;;;;22.35;36.52;102997.28;5021193;28;20033;-68
2022/01/17 10:21:58;;;;;;;9.88;3.05;;;;;;;22.51;36.45;103010.78;5041584;28;20753;-70
2022/01/17 10:35:11;;;;;;;10.52;3.05;;;;;;;22.48;36.40;103027.00;5018291;28;20071;-69
2022/01/17 10:37:37;;;;;;;13.50;3.17;;;;;;;22.37;36.98;103017.38;5031030;28;20075;-68
2022/01/17 10:40:07;;;;;;;9.38;3.22;;;;;;;22.28;36.86;103019.09;4993934;28;20363;-68
2022/01/17 10:42:41;;;;;;;12.25;2.75;;;;;;;22.31;36.91;103020.63;5032038;28;20079;-68
2022/01/17 10:45:13;;;;;;;9.45;3.28;;;;;;;22.08;36.88;103036.00;5000736;28;20040;-68
2022/01/17 10:47:43;;;;;;;10.25;3.10;;;;;;;22.01;37.22;103033.06;5031117;28;20029;-68
2022/01/17 10:50:18;;;;;;;;;;;;;;;21.94;37.19;103026.66;5019474;28;20390;-69
2022/01/17 10:52:49;;;;;;;15.43;3.40;;;;;;;21.92;36.98;103035.72;5032278;28;19927;-69
2022/01/17 10:55:27;;;;;;;13.30;3.55;;;;;;;21.88;37.20;103026.34;5020619;28;20095;-68
2022/01/17 10:58:02;;;;;;;13.13;3.90;;;;;;;21.78;37.41;103025.53;5030565;28;20069;-68
2022/01/17 11:00:30;;;;;;;16.20;4.43;;;;;;;21.77;37.28;103024.69;5002484;28;20871;-68
2022/01/17 11:02:59;;;;;;;11.98;3.25;;;;;;;21.73;37.69;103027.78;5038109;28;20059;-68
2022/01/17 11:05:27;;;;;;;14.77;3.75;;;;;;;21.70;37.46;103040.31;5009346;28;20094;-68
2022/01/17 11:07:56;;;;;;;18.23;4.20;;;;;;;21.69;37.40;103059.00;5026758;28;20056;-68
2022/01/17 11:10:23;;;;;;;13.88;3.85;;;;;;;21.67;37.24;103066.28;5039130;28;20044;-68
2022/01/17 11:12:50;;;;;;;16.13;4.07;;;;;;;21.59;37.48;103066.13;5005566;28;20928;-69
2022/01/17 11:15:17;;;;;;;19.08;4.25;;;;;;;21.57;37.70;103068.94;5039200;28;20037;-68
2022/01/17 11:17:49;;;;;;;15.63;4.03;;;;;;;21.47;37.75;103073.34;5003677;28;21021;-67
2022/01/17 11:20:15;;;;;;;14.55;3.72;;;;;;;21.43;37.91;103056.06;5045450;28;20053;-67
2022/01/17 11:22:43;;;;;;;15.90;3.83;;;;;;;21.42;37.83;103063.16;4999568;28;20718;-68
2022/01/17 11:25:13;;;;;;;17.45;4.10;;;;;;;21.42;38.03;103051.72;5030382;28;20052;-68
2022/01/17 11:27:39;;;;;;;15.90;4.18;;;;;;;21.33;38.10;103045.41;5032085;28;20037;-73
2022/01/17 11:30:05;;;;;;;14.27;4.10;;;;;;;21.23;38.33;103049.00;5004322;28;20498;-66
2022/01/17 11:32:31;;;;;;;14.27;3.35;;;;;;;21.42;38.17;103059.69;5035286;28;20778;-67
2022/01/17 11:34:59;;;;;;;14.68;4.15;;;;;;;21.61;37.31;103046.47;5003077;28;20044;-67
2022/01/17 11:37:27;;;;;;;15.45;4.18;;;;;;;21.79;37.21;103057.22;5031559;28;20168;-67
2022/01/17 11:39:55;;;;;;;11.35;3.67;;;;;;;21.90;37.17;103051.78;4988021;28;20105;-68
2022/01/17 11:42:35;;;;;;;12.82;3.92;;;;;;;22.05;36.74;103051.38;5032238;28;20092;-67
2022/01/17 11:45:23;;;;;;;14.20;3.35;;;;;;;22.02;37.04;103061.25;5003176;28;20143;-68
2022/01/17 11:47:59;;;;;;;12.90;4.03;;;;;;;22.07;36.73;103050.25;5031672;28;20045;-67
2022/01/17 11:50:27;;;;;;;15.20;3.90;;;;;;;22.12;36.84;103055.16;4997999;28;20510;-66
2022/01/17 11:52:53;;;;;;;12.15;4.07;;;;;;;22.09;36.81;103079.31;5037996;28;20028;-67
2022/01/17 11:55:42;;;;;;;16.58;3.58;;;;;;;22.07;36.73;103082.09;4988497;28;20068;-67